createdAt,value
2019-03-19T00:00:18.906Z,99.90
2019-03-19T00:02:47.391Z,99.90
2019-03-19T00:05:15.988Z,99.90
2019-03-19T00:07:44.530Z,99.90
2019-03-19T00:10:13.210Z,99.90
2019-03-19T00:12:41.866Z,99.90
2019-03-19T00:15:11.441Z,99.90
2019-03-19T00:17:39.963Z,99.90
2019-03-19T00:20:15.794Z,99.90
2019-03-19T00:22:44.482Z,99.90
2019-03-19T00:25:13.104Z,99.90
2019-03-19T00:27:41.615Z,99.90
2019-03-19T00:30:16.126Z,99.90
2019-03-19T00:32:44.638Z,99.90
2019-03-19T00:35:13.634Z,99.90
2019-03-19T00:37:42.305Z,99.90
2019-03-19T00:40:12.743Z,99.90
2019-03-19T00:42:41.282Z,99.90
2019-03-19T00:45:13.877Z,99.90
2019-03-19T00:47:42.581Z,99.90
2019-03-19T00:50:15.526Z,99.90
2019-03-19T00:52:44.124Z,99.90
2019-03-19T00:55:12.879Z,99.90
2019-03-19T00:57:41.427Z,99.90
2019-03-19T01:00:15.623Z,99.90
2019-03-19T01:02:44.142Z,99.90
2019-03-19T01:05:13.095Z,99.90
2019-03-19T01:07:41.605Z,99.90
2019-03-19T01:10:17.185Z,99.90
2019-03-19T01:12:44.991Z,99.90
2019-03-19T01:15:14.449Z,99.90
2019-03-19T01:17:42.972Z,99.90
2019-03-19T01:20:15.457Z,99.90
2019-03-19T01:22:44.125Z,99.90
2019-03-19T01:25:12.706Z,99.90
2019-03-19T01:27:41.250Z,99.90
2019-03-19T01:30:14.047Z,99.90
2019-03-19T01:32:42.511Z,99.90
2019-03-19T01:35:11.188Z,99.90
2019-03-19T01:37:39.708Z,99.90
2019-03-19T01:40:10.761Z,99.90
2019-03-19T01:42:39.415Z,99.90
2019-03-19T01:45:10.956Z,99.90
2019-03-19T01:47:39.571Z,99.90
2019-03-19T01:50:13.679Z,99.90
2019-03-19T01:52:43.194Z,99.90
2019-03-19T01:55:12.952Z,99.90
2019-03-19T01:57:41.543Z,99.90
2019-03-19T02:00:13.296Z,99.90
2019-03-19T02:02:41.882Z,99.90
2019-03-19T02:05:10.491Z,99.90
2019-03-19T02:07:39.037Z,99.90
2019-03-19T02:10:12.542Z,99.90
2019-03-19T02:12:40.987Z,99.90
2019-03-19T02:15:17.425Z,99.90
2019-03-19T02:17:46.011Z,99.90
2019-03-19T02:20:18.230Z,99.90
2019-03-19T02:22:46.911Z,99.90
2019-03-19T02:25:15.437Z,99.90
2019-03-19T02:27:44.066Z,99.90
2019-03-19T02:30:16.282Z,99.90
2019-03-19T02:32:44.781Z,99.90
2019-03-19T02:35:13.397Z,99.90
2019-03-19T02:37:41.913Z,99.90
2019-03-19T02:40:12.211Z,99.90
2019-03-19T02:42:40.737Z,99.90
2019-03-19T02:45:11.020Z,99.90
2019-03-19T02:47:39.529Z,99.90
2019-03-19T02:50:12.041Z,99.90
2019-03-19T02:52:40.563Z,99.90
2019-03-19T02:55:10.929Z,99.90
2019-03-19T02:57:39.472Z,99.90
2019-03-19T03:00:13.516Z,99.90
2019-03-19T03:02:42.194Z,99.90
2019-03-19T03:05:16.304Z,99.90
2019-03-19T03:07:44.913Z,99.90
2019-03-19T03:10:14.292Z,99.90
2019-03-19T03:12:42.879Z,99.90
2019-03-19T03:15:15.053Z,99.90
2019-03-19T03:17:43.735Z,99.90
2019-03-19T03:20:13.578Z,99.90
2019-03-19T03:22:42.241Z,99.90
2019-03-19T03:25:14.798Z,99.90
2019-03-19T03:27:43.307Z,99.90
2019-03-19T03:30:16.647Z,99.90
2019-03-19T03:32:45.348Z,99.90
2019-03-19T03:35:14.165Z,99.90
2019-03-19T03:37:42.651Z,99.90
2019-03-19T03:40:13.499Z,99.90
2019-03-19T03:42:43.212Z,99.90
2019-03-19T03:45:14.350Z,99.90
2019-03-19T03:47:42.952Z,99.90
2019-03-19T03:50:13.686Z,99.90
2019-03-19T03:52:42.278Z,99.90
2019-03-19T03:55:12.102Z,99.90
2019-03-19T03:57:40.619Z,99.90
2019-03-19T04:00:17.007Z,99.90
2019-03-19T04:02:45.525Z,99.90
2019-03-19T04:05:14.130Z,99.90
2019-03-19T04:07:42.725Z,99.90
2019-03-19T04:10:18.067Z,99.90
2019-03-19T04:12:46.818Z,99.90
2019-03-19T04:15:16.643Z,99.90
2019-03-19T04:17:45.291Z,99.90
2019-03-19T04:20:18.349Z,99.90
2019-03-19T04:22:46.819Z,99.90
2019-03-19T04:25:15.478Z,99.90
2019-03-19T04:27:44.169Z,99.90
2019-03-19T04:30:17.312Z,99.90
2019-03-19T04:32:45.894Z,99.90
2019-03-19T04:35:14.501Z,99.90
2019-03-19T04:37:43.093Z,99.90
2019-03-19T04:40:16.166Z,99.90
2019-03-19T04:42:45.156Z,99.90
2019-03-19T04:45:17.203Z,99.90
2019-03-19T04:47:45.807Z,99.90
2019-03-19T04:50:17.462Z,99.90
2019-03-19T04:52:46.066Z,99.90
2019-03-19T04:55:15.426Z,99.90
2019-03-19T04:57:44.110Z,99.90
2019-03-19T05:00:14.070Z,99.90
2019-03-19T05:02:42.745Z,99.90
2019-03-19T05:05:12.704Z,99.90
2019-03-19T05:07:41.316Z,99.90
2019-03-19T05:10:16.649Z,99.90
2019-03-19T05:12:45.246Z,99.90
2019-03-19T05:15:13.912Z,99.90
2019-03-19T05:17:42.453Z,99.90
2019-03-19T05:20:12.328Z,99.90
2019-03-19T05:22:40.854Z,99.90
2019-03-19T05:25:10.625Z,99.90
2019-03-19T05:27:39.244Z,99.90
2019-03-19T05:30:13.580Z,99.90
2019-03-19T05:32:42.191Z,99.90
2019-03-19T05:35:10.976Z,99.90
2019-03-19T05:37:39.563Z,99.90
2019-03-19T05:40:10.534Z,99.90
2019-03-19T05:42:39.074Z,99.90
2019-03-19T05:45:14.471Z,99.90
2019-03-19T05:47:43.151Z,99.90
2019-03-19T05:50:19.341Z,99.90
2019-03-19T05:52:48.629Z,99.90
2019-03-19T05:55:17.469Z,99.90
2019-03-19T05:57:49.747Z,99.90
2019-03-19T06:00:18.943Z,99.90
2019-03-19T06:02:47.415Z,99.90
2019-03-19T06:05:15.942Z,99.90
2019-03-19T06:07:44.468Z,99.90
2019-03-19T06:10:14.248Z,99.90
2019-03-19T06:12:42.938Z,99.90
2019-03-19T06:15:13.123Z,99.90
2019-03-19T06:17:41.785Z,99.90
2019-03-19T06:20:15.066Z,99.90
2019-03-19T06:22:43.656Z,99.90
2019-03-19T06:25:12.939Z,99.90
2019-03-19T06:27:41.606Z,99.90
2019-03-19T06:30:15.690Z,99.90
2019-03-19T06:32:44.340Z,99.90
2019-03-19T06:35:13.819Z,99.90
2019-03-19T06:37:42.411Z,99.90
2019-03-19T06:40:15.781Z,99.90
2019-03-19T06:42:44.451Z,99.90
2019-03-19T06:45:16.902Z,99.90
2019-03-19T06:47:45.491Z,99.90
2019-03-19T06:50:15.970Z,99.90
2019-03-19T06:52:44.569Z,99.90
2019-03-19T06:55:16.174Z,99.90
2019-03-19T06:57:44.697Z,99.90
2019-03-19T07:00:24.681Z,99.90
2019-03-19T07:02:53.326Z,99.90
2019-03-19T07:05:22.586Z,99.90
2019-03-19T07:07:51.120Z,99.90
2019-03-19T07:10:20.674Z,99.90
2019-03-19T07:12:49.218Z,99.90
2019-03-19T07:15:21.491Z,99.90
2019-03-19T07:17:50.029Z,99.90
2019-03-19T07:20:24.166Z,99.90
2019-03-19T07:22:52.638Z,99.90
2019-03-19T07:25:21.308Z,99.90
2019-03-19T07:27:49.920Z,99.90
2019-03-19T07:30:25.393Z,99.90
2019-03-19T07:32:53.925Z,99.90
2019-03-19T07:35:22.439Z,99.90
2019-03-19T07:37:50.989Z,99.90
2019-03-19T07:40:19.499Z,99.90
2019-03-19T07:42:48.112Z,99.90
2019-03-19T07:45:21.496Z,99.90
2019-03-19T07:47:50.098Z,99.90
2019-03-19T07:50:20.556Z,99.90
2019-03-19T07:52:49.164Z,99.90
2019-03-19T07:55:17.753Z,99.90
2019-03-19T07:57:46.427Z,99.90
2019-03-19T08:00:19.870Z,99.90
2019-03-19T08:02:48.557Z,99.90
2019-03-19T08:05:17.076Z,99.90
2019-03-19T08:07:45.709Z,99.90
2019-03-19T08:10:17.758Z,99.90
2019-03-19T08:12:46.230Z,99.90
2019-03-19T08:15:15.873Z,99.90
2019-03-19T08:17:44.613Z,99.90
2019-03-19T08:20:14.274Z,99.90
2019-03-19T08:22:42.978Z,99.90
2019-03-19T08:25:15.143Z,99.90
2019-03-19T08:27:43.748Z,99.90
2019-03-19T08:30:20.292Z,99.90
2019-03-19T08:32:48.836Z,99.90
2019-03-19T08:35:17.355Z,99.90
2019-03-19T08:37:45.819Z,99.90
2019-03-19T08:40:16.375Z,99.90
2019-03-19T08:42:45.061Z,99.90
2019-03-19T08:45:19.093Z,99.90
2019-03-19T08:47:47.697Z,99.90
2019-03-19T08:50:20.387Z,99.90
2019-03-19T08:52:48.934Z,99.90
2019-03-19T08:55:17.519Z,99.90
2019-03-19T08:57:46.036Z,99.90
2019-03-19T09:00:25.845Z,99.90
2019-03-19T09:02:54.422Z,99.90
2019-03-19T09:05:22.971Z,99.90
2019-03-19T09:07:51.486Z,99.90
2019-03-19T09:10:20.981Z,99.90
2019-03-19T09:12:49.574Z,99.90
2019-03-19T09:15:20.574Z,99.90
2019-03-19T09:17:49.115Z,99.90
2019-03-19T09:20:18.298Z,99.90
2019-03-19T09:22:46.810Z,99.90
2019-03-19T09:25:15.425Z,99.90
2019-03-19T09:27:44.078Z,99.90
2019-03-19T09:30:23.438Z,99.90
2019-03-19T09:32:52.036Z,99.90
2019-03-19T09:35:20.632Z,99.90
2019-03-19T09:37:57.675Z,99.90
2019-03-19T09:40:22.370Z,99.90
2019-03-19T09:42:51.050Z,99.90
2019-03-19T09:45:19.681Z,99.90
2019-03-19T09:47:48.223Z,99.90
2019-03-19T09:50:21.504Z,99.90
2019-03-19T09:52:50.115Z,99.90
2019-03-19T09:55:18.776Z,99.90
2019-03-19T09:57:47.319Z,99.90
2019-03-19T10:00:18.355Z,99.90
2019-03-19T10:02:47.043Z,99.90
2019-03-19T10:05:15.718Z,99.90
2019-03-19T10:07:44.399Z,99.90
2019-03-19T10:10:17.003Z,99.90
2019-03-19T10:12:45.543Z,99.90
2019-03-19T10:15:15.106Z,99.90
2019-03-19T10:17:43.594Z,99.90
2019-03-19T10:20:20.571Z,99.90
2019-03-19T10:22:49.114Z,99.90
2019-03-19T10:25:17.661Z,99.90
2019-03-19T10:27:46.342Z,99.90
2019-03-19T10:30:22.030Z,99.90
2019-03-19T10:32:50.722Z,99.90
2019-03-19T10:35:19.615Z,99.90
2019-03-19T10:37:48.235Z,99.90
2019-03-19T10:40:18.871Z,99.90
2019-03-19T10:42:47.418Z,99.90
2019-03-19T10:45:20.615Z,99.90
2019-03-19T10:47:49.297Z,99.90
2019-03-19T10:50:19.758Z,99.90
2019-03-19T10:52:48.445Z,99.90
2019-03-19T10:55:16.966Z,99.90
2019-03-19T10:57:45.583Z,99.90
2019-03-19T11:00:22.431Z,99.90
2019-03-19T11:02:51.207Z,99.90
2019-03-19T11:05:21.663Z,99.90
2019-03-19T11:07:50.359Z,99.90
2019-03-19T11:10:19.347Z,99.90
2019-03-19T11:12:48.032Z,99.90
2019-03-19T11:15:18.103Z,99.90
2019-03-19T11:17:46.710Z,99.90
2019-03-19T11:20:19.280Z,99.60
2019-03-19T11:22:47.894Z,98.40
2019-03-19T11:25:29.935Z,97.40
2019-03-19T11:27:58.642Z,95.30
2019-03-19T11:30:28.439Z,93.00
2019-03-19T11:32:57.051Z,92.00
2019-03-19T11:35:26.409Z,89.20
2019-03-19T11:37:54.952Z,88.10
2019-03-19T11:40:25.845Z,87.60
2019-03-19T11:42:54.047Z,85.10
2019-03-19T11:45:24.526Z,82.90
2019-03-19T11:47:53.112Z,91.60
2019-03-19T11:50:23.373Z,89.60
2019-03-19T11:52:52.558Z,91.60
2019-03-19T11:55:21.222Z,94.40
2019-03-19T11:57:49.929Z,90.30
2019-03-19T12:00:24.953Z,79.80
2019-03-19T12:02:53.496Z,82.60
2019-03-19T12:05:22.091Z,81.90
2019-03-19T12:07:50.560Z,83.40
2019-03-19T12:10:19.078Z,86.30
2019-03-19T12:12:47.691Z,89.90
2019-03-19T12:15:16.291Z,88.90
2019-03-19T12:17:44.896Z,91.50
2019-03-19T12:20:14.458Z,91.70
2019-03-19T12:22:43.007Z,90.70
2019-03-19T12:25:12.562Z,90.60
2019-03-19T12:27:41.278Z,91.70
2019-03-19T12:30:22.219Z,88.00
2019-03-19T12:32:47.932Z,89.40
2019-03-19T12:35:18.343Z,85.50
2019-03-19T12:37:47.079Z,86.40
2019-03-19T12:40:22.776Z,80.40
2019-03-19T12:42:51.395Z,83.30
2019-03-19T12:45:23.305Z,87.70
2019-03-19T12:47:51.925Z,89.00
2019-03-19T12:50:26.490Z,75.50
2019-03-19T12:52:55.106Z,75.70
2019-03-19T12:55:23.704Z,73.50
2019-03-19T12:57:52.323Z,71.90
2019-03-19T13:00:34.155Z,72.40
2019-03-19T13:02:56.066Z,71.90
2019-03-19T13:05:24.730Z,71.20
2019-03-19T13:07:53.270Z,70.50
2019-03-19T13:10:22.947Z,72.40
2019-03-19T13:12:51.635Z,69.00
2019-03-19T13:15:20.907Z,62.80
2019-03-19T13:17:49.731Z,65.00
2019-03-19T13:20:19.211Z,68.40
2019-03-19T13:22:47.747Z,74.80
2019-03-19T13:25:17.849Z,68.60
2019-03-19T13:27:46.389Z,60.20
2019-03-19T13:30:20.820Z,62.80
2019-03-19T13:32:49.362Z,69.60
2019-03-19T13:35:17.886Z,67.70
2019-03-19T13:37:46.434Z,63.20
2019-03-19T13:40:18.795Z,63.10
2019-03-19T13:42:47.400Z,63.40
2019-03-19T13:45:17.598Z,58.60
2019-03-19T13:47:46.138Z,61.40
2019-03-19T13:50:18.595Z,64.50
2019-03-19T13:52:47.106Z,67.80
2019-03-19T13:55:16.916Z,63.60
2019-03-19T13:57:45.464Z,64.30
2019-03-19T14:00:16.004Z,64.80
2019-03-19T14:02:44.888Z,63.50
2019-03-19T14:05:14.651Z,62.40
2019-03-19T14:07:44.798Z,65.80
2019-03-19T14:10:22.508Z,67.80
2019-03-19T14:12:51.060Z,67.50
2019-03-19T14:15:24.383Z,68.80
2019-03-19T14:17:52.936Z,69.40
2019-03-19T14:20:21.526Z,67.70
2019-03-19T14:22:50.147Z,65.60
2019-03-19T14:25:18.846Z,60.90
2019-03-19T14:27:47.526Z,63.30
2019-03-19T14:30:23.138Z,64.80
2019-03-19T14:32:51.612Z,65.80
2019-03-19T14:35:20.147Z,66.30
2019-03-19T14:37:48.759Z,67.70
2019-03-19T14:40:19.495Z,69.90
2019-03-19T14:42:48.103Z,70.30
2019-03-19T14:45:17.673Z,70.80
2019-03-19T14:47:46.356Z,73.30
2019-03-19T14:50:16.316Z,73.70
2019-03-19T14:52:45.004Z,73.30
2019-03-19T14:55:13.595Z,71.10
2019-03-19T14:57:42.242Z,73.90
2019-03-19T15:00:18.538Z,74.50
2019-03-19T15:02:47.103Z,74.40
2019-03-19T15:05:15.789Z,74.90
2019-03-19T15:07:44.474Z,77.90
2019-03-19T15:10:20.418Z,78.00
2019-03-19T15:12:49.111Z,80.20
2019-03-19T15:15:18.480Z,79.40
2019-03-19T15:17:47.181Z,79.40
2019-03-19T15:20:23.222Z,77.60
2019-03-19T15:22:51.839Z,79.00
2019-03-19T15:25:20.370Z,77.70
2019-03-19T15:27:48.923Z,77.80
2019-03-19T15:30:18.393Z,78.20
2019-03-19T15:32:47.077Z,77.50
2019-03-19T15:35:15.675Z,77.50
2019-03-19T15:37:44.295Z,76.10
2019-03-19T15:40:19.828Z,76.10
2019-03-19T15:42:48.375Z,74.80
2019-03-19T15:45:30.629Z,75.30
2019-03-19T15:47:59.243Z,77.40
2019-03-19T15:50:27.764Z,77.90
2019-03-19T15:52:56.396Z,78.80
2019-03-19T15:55:24.987Z,78.90
2019-03-19T15:57:53.462Z,76.70
2019-03-19T16:00:22.337Z,74.90
2019-03-19T16:02:50.970Z,74.90
2019-03-19T16:05:19.486Z,72.90
2019-03-19T16:07:48.038Z,73.60
2019-03-19T16:10:17.611Z,73.40
2019-03-19T16:12:46.224Z,74.30
2019-03-19T16:15:16.014Z,72.80
2019-03-19T16:17:44.629Z,73.80
2019-03-19T16:20:17.988Z,74.90
2019-03-19T16:22:46.519Z,73.70
2019-03-19T16:25:15.215Z,74.90
2019-03-19T16:27:43.911Z,75.00
2019-03-19T16:30:21.784Z,73.40
2019-03-19T16:32:50.312Z,73.10
2019-03-19T16:35:18.863Z,73.90
2019-03-19T16:37:47.398Z,73.40
2019-03-19T16:40:22.282Z,74.80
2019-03-19T16:42:50.871Z,76.30
2019-03-19T16:45:19.482Z,74.50
2019-03-19T16:47:48.007Z,77.20
2019-03-19T16:50:23.502Z,77.30
2019-03-19T16:52:52.168Z,76.90
2019-03-19T16:58:00.568Z,79.70
2019-03-19T17:00:30.050Z,80.70
2019-03-19T17:02:58.579Z,80.40
2019-03-19T17:05:27.133Z,80.40
2019-03-19T17:07:55.723Z,82.20
2019-03-19T17:10:30.840Z,83.00
2019-03-19T17:12:59.366Z,82.80
2019-03-19T17:15:27.986Z,85.10
2019-03-19T17:17:56.510Z,84.70
2019-03-19T17:20:24.978Z,86.40
2019-03-19T17:22:53.503Z,87.20
2019-03-19T17:25:28.103Z,89.20
2019-03-19T17:27:56.633Z,90.40
2019-03-19T17:30:30.270Z,90.60
2019-03-19T17:32:58.934Z,90.90
2019-03-19T17:35:27.895Z,91.50
2019-03-19T17:37:56.419Z,91.50
2019-03-19T17:40:25.031Z,92.20
2019-03-19T17:42:53.651Z,93.50
2019-03-19T17:45:22.180Z,95.30
2019-03-19T17:47:50.704Z,96.60
2019-03-19T17:50:20.890Z,97.90
2019-03-19T17:52:51.413Z,99.40
2019-03-19T17:55:21.516Z,99.60
2019-03-19T17:57:50.107Z,99.70
2019-03-19T18:00:32.497Z,99.90
2019-03-19T18:03:01.028Z,99.90
2019-03-19T18:05:29.560Z,99.90
2019-03-19T18:07:58.214Z,99.90
2019-03-19T18:10:26.693Z,99.90
2019-03-19T18:12:55.286Z,99.90
2019-03-19T18:15:23.900Z,99.90
2019-03-19T18:17:52.418Z,99.90
2019-03-19T18:20:20.891Z,99.90
2019-03-19T18:22:49.355Z,99.90
2019-03-19T18:25:18.900Z,99.90
2019-03-19T18:27:47.432Z,99.90
2019-03-19T18:30:19.059Z,99.90
2019-03-19T18:32:49.189Z,99.90
2019-03-19T18:35:18.071Z,99.90
2019-03-19T18:37:46.677Z,99.90
2019-03-19T18:40:17.209Z,99.90
2019-03-19T18:42:45.735Z,99.90
2019-03-19T18:45:19.234Z,99.90
2019-03-19T18:47:47.820Z,99.90
2019-03-19T18:50:17.513Z,99.90
2019-03-19T18:52:46.103Z,99.90
2019-03-19T18:55:14.719Z,99.90
2019-03-19T18:57:43.388Z,99.90
2019-03-19T19:00:21.965Z,99.90
2019-03-19T19:02:51.262Z,99.90
2019-03-19T19:05:22.010Z,99.90
2019-03-19T19:07:50.533Z,99.90
2019-03-19T19:10:21.155Z,99.90
2019-03-19T19:12:49.638Z,99.90
2019-03-19T19:15:20.086Z,99.90
2019-03-19T19:17:48.673Z,99.90
2019-03-19T19:20:17.943Z,99.90
2019-03-19T19:22:46.608Z,99.90
2019-03-19T19:25:20.811Z,99.90
2019-03-19T19:27:49.613Z,99.90
2019-03-19T19:30:20.753Z,99.90
2019-03-19T19:33:00.533Z,99.90
2019-03-19T19:35:19.616Z,99.90
2019-03-19T19:37:48.207Z,99.90
2019-03-19T19:40:19.967Z,99.90
2019-03-19T19:42:48.425Z,99.90
2019-03-19T19:45:17.882Z,99.90
2019-03-19T19:47:46.763Z,99.90
2019-03-19T19:50:22.215Z,99.90
2019-03-19T19:52:50.751Z,99.90
2019-03-19T19:55:19.419Z,99.90
2019-03-19T19:57:48.027Z,99.90
2019-03-19T20:00:18.784Z,99.90
2019-03-19T20:02:47.572Z,99.90
2019-03-19T20:05:16.163Z,99.90
2019-03-19T20:07:44.702Z,99.90
2019-03-19T20:10:24.358Z,99.90
2019-03-19T20:12:52.894Z,99.90
2019-03-19T20:15:23.195Z,99.90
2019-03-19T20:17:51.766Z,99.90
2019-03-19T20:20:25.317Z,99.90
2019-03-19T20:22:53.871Z,99.90
2019-03-19T20:25:22.459Z,99.90
2019-03-19T20:27:51.007Z,99.90
2019-03-19T20:30:21.852Z,99.90
2019-03-19T20:32:50.395Z,99.90
2019-03-19T20:35:19.002Z,99.90
2019-03-19T20:37:47.534Z,99.90
2019-03-19T20:40:16.525Z,99.90
2019-03-19T20:42:45.315Z,99.90
2019-03-19T20:45:21.737Z,99.90
2019-03-19T20:47:50.457Z,99.90
2019-03-19T20:50:22.062Z,99.90
2019-03-19T20:52:50.598Z,99.90
2019-03-19T20:55:19.110Z,99.90
2019-03-19T20:57:47.646Z,99.90
2019-03-19T21:00:17.538Z,99.90
2019-03-19T21:02:46.151Z,99.90
2019-03-19T21:05:14.740Z,99.90
2019-03-19T21:07:43.270Z,99.90
2019-03-19T21:10:14.321Z,99.90
2019-03-19T21:12:42.916Z,99.90
2019-03-19T21:15:27.971Z,99.90
2019-03-19T21:17:56.569Z,99.90
2019-03-19T21:20:25.180Z,99.90
2019-03-19T21:22:53.834Z,99.90
2019-03-19T21:25:22.438Z,99.90
2019-03-19T21:27:50.963Z,99.90
2019-03-19T21:30:20.896Z,99.90
2019-03-19T21:32:49.368Z,99.90
2019-03-19T21:35:22.819Z,99.90
2019-03-19T21:37:51.468Z,99.90
2019-03-19T21:40:20.227Z,99.90
2019-03-19T21:42:48.818Z,99.90
2019-03-19T21:45:19.468Z,99.90
2019-03-19T21:47:48.062Z,99.90
2019-03-19T21:50:20.813Z,99.90
2019-03-19T21:52:49.348Z,99.90
2019-03-19T21:55:17.953Z,99.90
2019-03-19T21:57:46.548Z,99.90
2019-03-19T22:00:23.912Z,99.90
2019-03-19T22:02:52.434Z,99.90
2019-03-19T22:05:20.968Z,99.90
2019-03-19T22:07:49.563Z,99.90
2019-03-19T22:10:19.244Z,99.90
2019-03-19T22:12:49.307Z,99.90
2019-03-19T22:15:23.325Z,99.90
2019-03-19T22:17:51.858Z,99.90
2019-03-19T22:20:20.539Z,99.90
2019-03-19T22:22:49.063Z,99.90
2019-03-19T22:25:17.614Z,99.90
2019-03-19T22:27:46.189Z,99.90
2019-03-19T22:30:19.010Z,99.90
2019-03-19T22:32:47.544Z,99.90
2019-03-19T22:35:16.222Z,99.90
2019-03-19T22:37:44.746Z,99.90
2019-03-19T22:40:15.294Z,99.90
2019-03-19T22:42:43.882Z,99.90
2019-03-19T22:45:14.383Z,99.90
2019-03-19T22:47:42.965Z,99.90
2019-03-19T22:50:14.586Z,99.90
2019-03-19T22:52:43.365Z,99.90
2019-03-19T22:55:13.283Z,99.90
2019-03-19T22:57:42.052Z,99.90
2019-03-19T23:00:39.140Z,99.90
2019-03-19T23:03:08.125Z,99.90
2019-03-19T23:05:36.980Z,99.90
2019-03-19T23:08:05.664Z,99.90
2019-03-19T23:10:34.734Z,99.90
2019-03-19T23:13:03.803Z,99.90
2019-03-19T23:15:32.396Z,99.90
2019-03-19T23:18:01.001Z,99.90
2019-03-19T23:20:29.617Z,99.90
2019-03-19T23:22:58.131Z,99.90
2019-03-19T23:25:26.757Z,99.90
2019-03-19T23:27:55.274Z,99.90
2019-03-19T23:30:24.782Z,99.90
2019-03-19T23:32:53.452Z,99.90
2019-03-19T23:35:22.058Z,99.90
2019-03-19T23:37:50.628Z,99.90
2019-03-19T23:40:20.466Z,99.90
2019-03-19T23:42:49.054Z,99.90
2019-03-19T23:45:17.598Z,99.90
2019-03-19T23:47:46.199Z,99.90
2019-03-19T23:50:17.805Z,99.90
2019-03-19T23:52:46.416Z,99.90
2019-03-19T23:55:15.014Z,99.90
2019-03-19T23:57:43.567Z,99.90
